createdAt,value
2022-08-20T00:01:36.549Z,98285.20
2022-08-20T00:04:24.511Z,98285.77
2022-08-20T00:07:12.684Z,98293.75
2022-08-20T00:10:00.872Z,98304.50
2022-08-20T00:12:49.721Z,98312.23
2022-08-20T00:15:38.335Z,98320.21
2022-08-20T00:18:25.992Z,98325.65
2022-08-20T00:21:19.163Z,98328.48
2022-08-20T00:24:05.808Z,98329.66
2022-08-20T00:26:53.567Z,98327.28
2022-08-20T00:29:40.849Z,98333.09
2022-08-20T00:32:27.952Z,98324.28
2022-08-20T00:35:18.089Z,98331.45
2022-08-20T00:38:05.209Z,98326.25
2022-08-20T00:40:55.584Z,98316.84
2022-08-20T00:43:55.011Z,98310.67
2022-08-20T00:46:45.425Z,98304.07
2022-08-20T00:49:34.103Z,98305.03
2022-08-20T00:52:22.263Z,98301.56
2022-08-20T00:55:11.167Z,98289.34
2022-08-20T00:58:03.543Z,98273.91
2022-08-20T01:00:51.391Z,98261.50
2022-08-20T01:03:38.728Z,98256.73
2022-08-20T01:06:27.200Z,98261.70
2022-08-20T01:09:15.001Z,98279.07
2022-08-20T01:12:03.503Z,98272.83
2022-08-20T01:14:51.063Z,98272.75
2022-08-20T01:17:41.872Z,98274.75
2022-08-20T01:20:35.231Z,98288.68
2022-08-20T01:23:30.724Z,98290.64
2022-08-20T01:29:41.480Z,98286.84
2022-08-20T01:32:29.243Z,98281.00
2022-08-20T01:35:21.679Z,98284.95
2022-08-20T01:38:09.831Z,98293.70
2022-08-20T01:41:17.614Z,98288.81
2022-08-20T01:44:06.441Z,98278.76
2022-08-20T01:46:57.493Z,98281.70
2022-08-20T01:49:49.920Z,98279.47
2022-08-20T01:52:48.351Z,98275.77
2022-08-20T01:55:35.913Z,98269.22
2022-08-20T01:58:24.083Z,98260.45
2022-08-20T02:01:20.684Z,98260.25
2022-08-20T02:04:15.153Z,98268.41
2022-08-20T02:07:02.136Z,98277.62
2022-08-20T02:09:50.375Z,98286.00
2022-08-20T02:12:40.071Z,98274.12
2022-08-20T02:15:35.238Z,98268.12
2022-08-20T02:18:17.065Z,98256.28
2022-08-20T02:21:05.562Z,98258.81
2022-08-20T02:23:53.015Z,98264.87
2022-08-20T02:26:41.224Z,98260.12
2022-08-20T02:29:28.935Z,98245.38
2022-08-20T02:32:26.241Z,98234.14
2022-08-20T02:35:10.640Z,98234.29
2022-08-20T02:37:58.200Z,98231.08
2022-08-20T02:40:46.802Z,98225.89
2022-08-20T02:43:34.321Z,98227.69
2022-08-20T02:46:21.661Z,98228.98
2022-08-20T02:49:08.720Z,98226.50
2022-08-20T02:51:56.055Z,98225.44
2022-08-20T02:54:43.320Z,98215.66
2022-08-20T02:57:31.008Z,98203.06
2022-08-20T03:00:20.896Z,98201.02
2022-08-20T03:03:11.015Z,98186.98
2022-08-20T03:05:59.633Z,98189.38
2022-08-20T03:08:47.049Z,98183.79
2022-08-20T03:11:35.199Z,98195.16
2022-08-20T03:14:23.312Z,98201.23
2022-08-20T03:17:11.053Z,98193.44
2022-08-20T03:19:58.449Z,98194.91
2022-08-20T03:22:46.311Z,98194.58
2022-08-20T03:25:34.015Z,98197.47
2022-08-20T03:28:21.695Z,98188.69
2022-08-20T03:31:09.168Z,98177.64
2022-08-20T03:33:57.042Z,98188.17
2022-08-20T03:36:44.402Z,98198.77
2022-08-20T03:39:31.441Z,98210.20
2022-08-20T03:42:18.943Z,98207.22
2022-08-20T03:45:08.031Z,98212.26
2022-08-20T03:47:57.195Z,98223.14
2022-08-20T03:50:46.448Z,98229.59
2022-08-20T03:53:33.544Z,98227.25
2022-08-20T03:59:09.792Z,98226.25
2022-08-20T04:01:57.346Z,98228.20
2022-08-20T04:04:45.064Z,98218.51
2022-08-20T04:07:32.248Z,98222.69
2022-08-20T04:10:19.976Z,98222.85
2022-08-20T04:13:08.496Z,98229.45
2022-08-20T04:15:56.386Z,98229.24
2022-08-20T04:18:57.235Z,98227.05
2022-08-20T04:21:35.303Z,98227.70
2022-08-20T04:24:31.953Z,98220.00
2022-08-20T04:27:14.464Z,98224.89
2022-08-20T04:30:04.304Z,98238.48
2022-08-20T04:32:52.096Z,98251.67
2022-08-20T04:35:39.776Z,98249.92
2022-08-20T04:38:27.361Z,98240.22
2022-08-20T04:41:22.410Z,98239.14
2022-08-20T04:44:05.129Z,98248.27
2022-08-20T04:46:52.463Z,98249.81
2022-08-20T04:49:40.007Z,98250.33
2022-08-20T04:52:28.698Z,98241.44
2022-08-20T04:55:17.361Z,98237.34
2022-08-20T04:58:09.712Z,98236.23
2022-08-20T05:01:01.171Z,98239.88
2022-08-20T05:03:48.392Z,98231.15
2022-08-20T05:06:36.024Z,98234.39
2022-08-20T05:09:23.848Z,98234.63
2022-08-20T05:12:12.304Z,98229.02
2022-08-20T05:15:00.351Z,98226.81
2022-08-20T05:17:47.961Z,98230.84
2022-08-20T05:20:39.609Z,98231.08
2022-08-20T05:23:26.608Z,98233.08
2022-08-20T05:26:16.174Z,98231.09
2022-08-20T05:29:05.679Z,98216.23
2022-08-20T05:31:52.849Z,98216.23
2022-08-20T05:34:40.496Z,98222.06
2022-08-20T05:37:27.912Z,98214.45
2022-08-20T05:40:17.152Z,98216.43
2022-08-20T05:43:05.146Z,98212.41
2022-08-20T05:45:56.533Z,98224.06
2022-08-20T05:48:41.665Z,98232.28
2022-08-20T05:51:30.124Z,98239.09
2022-08-20T05:54:17.481Z,98244.92
2022-08-20T05:57:06.320Z,98249.94
2022-08-20T05:59:53.760Z,98246.69
2022-08-20T06:02:59.533Z,98237.23
2022-08-20T06:05:47.000Z,98221.48
2022-08-20T06:08:34.672Z,98211.31
2022-08-20T06:11:23.074Z,98215.03
2022-08-20T06:14:10.544Z,98220.73
2022-08-20T06:17:09.600Z,98223.97
2022-08-20T06:19:58.712Z,98218.53
2022-08-20T06:22:46.209Z,98219.64
2022-08-20T06:25:38.001Z,98223.97
2022-08-20T06:28:25.153Z,98223.48
2022-08-20T06:31:12.770Z,98208.28
2022-08-20T06:34:00.176Z,98206.54
2022-08-20T06:36:47.759Z,98192.81
2022-08-20T06:39:35.473Z,98191.72
2022-08-20T06:42:23.426Z,98205.50
2022-08-20T06:45:11.968Z,98206.56
2022-08-20T06:48:01.476Z,98208.81
2022-08-20T06:50:49.096Z,98207.84
2022-08-20T06:53:37.295Z,98202.98
2022-08-20T06:56:24.632Z,98194.82
2022-08-20T06:59:12.072Z,98183.20
2022-08-20T07:01:59.079Z,98180.09
2022-08-20T07:04:46.992Z,98180.17
2022-08-20T07:07:34.681Z,98174.20
2022-08-20T07:10:23.896Z,98180.04
2022-08-20T07:13:13.424Z,98176.16
2022-08-20T07:16:00.912Z,98181.78
2022-08-20T07:18:48.119Z,98181.70
2022-08-20T07:21:35.577Z,98184.70
2022-08-20T07:24:23.168Z,98188.03
2022-08-20T07:27:10.816Z,98186.56
2022-08-20T07:30:16.081Z,98189.09
2022-08-20T07:33:05.024Z,98184.87
2022-08-20T07:35:54.281Z,98184.83
2022-08-20T07:38:41.767Z,98188.38
2022-08-20T07:41:29.633Z,98198.33
2022-08-20T07:44:17.536Z,98199.12
2022-08-20T07:47:05.600Z,98214.81
2022-08-20T07:49:52.936Z,98211.13
2022-08-20T07:52:40.360Z,98208.45
2022-08-20T07:55:28.017Z,98206.79
2022-08-20T07:58:18.513Z,98209.97
2022-08-20T08:01:07.347Z,98215.27
2022-08-20T08:03:55.161Z,98210.27
2022-08-20T08:06:43.792Z,98214.17
2022-08-20T08:09:31.248Z,98214.17
2022-08-20T08:12:18.599Z,98216.16
2022-08-20T08:15:08.657Z,98208.88
2022-08-20T08:17:55.849Z,98208.88
2022-08-20T08:20:47.047Z,98206.13
2022-08-20T08:23:35.072Z,98203.69
2022-08-20T08:26:22.624Z,98207.09
2022-08-20T08:29:10.276Z,98207.23
2022-08-20T08:31:57.849Z,98208.35
2022-08-20T08:34:47.848Z,98206.99
2022-08-20T08:37:37.665Z,98204.88
2022-08-20T08:40:25.551Z,98210.09
2022-08-20T08:43:14.551Z,98212.22
2022-08-20T08:46:09.427Z,98218.27
2022-08-20T08:48:59.002Z,98215.66
2022-08-20T08:51:49.008Z,98212.88
2022-08-20T08:54:35.969Z,98211.12
2022-08-20T08:57:24.215Z,98205.38
2022-08-20T09:00:17.467Z,98204.13
2022-08-20T09:03:13.832Z,98197.02
2022-08-20T09:06:02.448Z,98202.02
2022-08-20T09:08:52.681Z,98197.64
2022-08-20T09:11:53.308Z,98196.25
2022-08-20T09:14:41.317Z,98189.73
2022-08-20T09:17:28.657Z,98190.05
2022-08-20T09:20:15.929Z,98190.28
2022-08-20T09:23:05.117Z,98200.02
2022-08-20T09:25:52.769Z,98194.48
2022-08-20T09:28:39.745Z,98193.23
2022-08-20T09:31:27.832Z,98190.49
2022-08-20T09:34:15.898Z,98186.20
2022-08-20T09:37:03.386Z,98179.37
2022-08-20T09:39:51.404Z,98181.83
2022-08-20T09:42:41.607Z,98184.00
2022-08-20T09:45:29.696Z,98176.70
2022-08-20T09:48:17.160Z,98179.64
2022-08-20T09:51:04.800Z,98172.23
2022-08-20T09:53:53.049Z,98171.63
2022-08-20T09:56:40.498Z,98171.97
2022-08-20T09:59:29.000Z,98172.66
2022-08-20T10:02:16.695Z,98174.70
2022-08-20T10:05:03.993Z,98169.05
2022-08-20T10:07:51.937Z,98159.50
2022-08-20T10:10:39.448Z,98165.64
2022-08-20T10:13:26.569Z,98164.63
2022-08-20T10:16:14.201Z,98153.59
2022-08-20T10:19:02.081Z,98148.33
2022-08-20T10:21:54.427Z,98145.51
2022-08-20T10:24:41.616Z,98144.45
2022-08-20T10:27:28.962Z,98140.80
2022-08-20T10:30:16.587Z,98159.44
2022-08-20T10:33:04.280Z,98151.52
2022-08-20T10:35:51.488Z,98152.31
2022-08-20T10:38:40.571Z,98162.61
2022-08-20T10:41:28.536Z,98156.73
2022-08-20T10:44:17.752Z,98154.63
2022-08-20T10:47:20.512Z,98158.88
2022-08-20T10:50:10.920Z,98165.30
2022-08-20T10:52:58.650Z,98171.89
2022-08-20T10:55:46.344Z,98174.05
2022-08-20T10:58:37.744Z,98176.34
2022-08-20T11:01:32.769Z,98171.02
2022-08-20T11:04:12.125Z,98163.53
2022-08-20T11:06:59.625Z,98170.63
2022-08-20T11:09:48.352Z,98169.92
2022-08-20T11:12:35.809Z,98165.95
2022-08-20T11:15:22.991Z,98165.53
2022-08-20T11:18:13.197Z,98165.66
2022-08-20T11:21:01.598Z,98161.83
2022-08-20T11:23:48.569Z,98157.50
2022-08-20T11:26:36.058Z,98150.16
2022-08-20T11:29:24.922Z,98150.64
2022-08-20T11:32:13.251Z,98146.73
2022-08-20T11:35:00.584Z,98146.59
2022-08-20T11:37:47.946Z,98143.00
2022-08-20T11:40:35.184Z,98143.69
2022-08-20T11:43:22.891Z,98132.92
2022-08-20T11:46:10.419Z,98138.32
2022-08-20T11:48:57.865Z,98134.52
2022-08-20T11:51:49.637Z,98129.27
2022-08-20T11:54:35.432Z,98131.19
2022-08-20T11:57:26.130Z,98130.06
2022-08-20T12:00:16.831Z,98127.19
2022-08-20T12:03:06.174Z,98126.84
2022-08-20T12:05:56.928Z,98125.56
2022-08-20T12:08:44.320Z,98123.48
2022-08-20T12:11:32.160Z,98123.47
2022-08-20T12:14:19.472Z,98120.81
2022-08-20T12:17:20.066Z,98117.77
2022-08-20T12:20:10.280Z,98111.37
2022-08-20T12:22:59.144Z,98109.91
2022-08-20T12:25:46.508Z,98104.15
2022-08-20T12:28:34.281Z,98096.64
2022-08-20T12:31:21.712Z,98091.47
2022-08-20T12:34:08.625Z,98093.59
2022-08-20T12:37:05.560Z,98089.72
2022-08-20T12:39:56.027Z,98089.34
2022-08-20T12:42:43.769Z,98083.03
2022-08-20T12:45:31.848Z,98087.47
2022-08-20T12:48:20.976Z,98084.11
2022-08-20T12:51:08.240Z,98086.58
2022-08-20T12:53:55.224Z,98083.76
2022-08-20T12:56:42.848Z,98081.16
2022-08-20T12:59:30.201Z,98082.19
2022-08-20T13:02:19.408Z,98085.52
2022-08-20T13:05:09.554Z,98090.13
2022-08-20T13:07:57.320Z,98089.95
2022-08-20T13:10:46.447Z,98098.28
2022-08-20T13:13:33.922Z,98098.97
2022-08-20T13:16:21.200Z,98100.31
2022-08-20T13:19:08.706Z,98107.54
2022-08-20T13:21:56.372Z,98112.23
2022-08-20T13:24:44.385Z,98113.14
2022-08-20T13:27:31.794Z,98117.62
2022-08-20T13:30:20.578Z,98118.91
2022-08-20T13:33:08.105Z,98128.78
2022-08-20T13:35:56.857Z,98125.37
2022-08-20T13:38:44.056Z,98133.91
2022-08-20T13:41:31.689Z,98129.61
2022-08-20T13:44:19.305Z,98131.61
2022-08-20T13:47:18.469Z,98130.83
2022-08-20T13:50:10.067Z,98130.20
2022-08-20T13:52:58.804Z,98122.95
2022-08-20T13:55:48.060Z,98127.16
2022-08-20T13:58:35.810Z,98134.48
2022-08-20T14:01:23.392Z,98138.03
2022-08-20T14:04:11.057Z,98145.97
2022-08-20T14:06:58.417Z,98145.31
2022-08-20T14:09:49.129Z,98142.45
2022-08-20T14:12:36.384Z,98139.26
2022-08-20T14:15:24.032Z,98134.57
2022-08-20T14:18:11.401Z,98129.23
2022-08-20T14:20:58.873Z,98132.75
2022-08-20T14:23:46.123Z,98134.66
2022-08-20T14:26:33.605Z,98128.09
2022-08-20T14:29:22.464Z,98127.73
2022-08-20T14:32:10.914Z,98129.40
2022-08-20T14:34:59.406Z,98123.12
2022-08-20T14:37:56.793Z,98124.56
2022-08-20T14:40:44.274Z,98117.92
2022-08-20T14:43:31.699Z,98124.30
2022-08-20T14:46:19.217Z,98124.78
2022-08-20T14:49:06.792Z,98115.59
2022-08-20T14:51:53.985Z,98117.55
2022-08-20T14:54:41.612Z,98116.00
2022-08-20T14:57:29.153Z,98109.20
2022-08-20T15:00:19.764Z,98104.33
2022-08-20T15:03:07.545Z,98094.36
2022-08-20T15:05:55.113Z,98088.48
2022-08-20T15:08:42.769Z,98085.65
2022-08-20T15:11:34.090Z,98084.36
2022-08-20T15:14:18.929Z,98093.09
2022-08-20T15:17:07.300Z,98091.34
2022-08-20T15:19:54.848Z,98088.97
2022-08-20T15:22:43.208Z,98080.08
2022-08-20T15:25:36.894Z,98083.26
2022-08-20T15:28:23.312Z,98080.21
2022-08-20T15:31:11.825Z,98081.76
2022-08-20T15:33:59.548Z,98086.00
2022-08-20T15:36:47.568Z,98089.66
2022-08-20T15:39:36.425Z,98087.20
2022-08-20T15:42:24.602Z,98095.17
2022-08-20T15:45:12.680Z,98092.11
2022-08-20T15:48:15.800Z,98098.48
2022-08-20T15:51:12.392Z,98091.49
2022-08-20T15:54:05.941Z,98090.17
2022-08-20T15:57:05.921Z,98084.50
2022-08-20T16:00:09.833Z,98080.45
2022-08-20T16:03:22.796Z,98088.10
2022-08-20T16:06:17.122Z,98086.58
2022-08-20T16:09:41.424Z,98078.58
2022-08-20T16:12:34.289Z,98079.56
2022-08-20T16:15:32.968Z,98082.56
2022-08-20T16:18:23.519Z,98088.75
2022-08-20T16:21:13.952Z,98092.06
2022-08-20T16:24:02.201Z,98089.16
2022-08-20T16:27:07.184Z,98092.50
2022-08-20T16:30:09.911Z,98095.34
2022-08-20T16:33:02.984Z,98091.50
2022-08-20T16:39:28.595Z,98093.16
2022-08-20T16:42:17.873Z,98096.46
2022-08-20T16:45:08.330Z,98093.47
2022-08-20T16:50:47.527Z,98100.10
2022-08-20T16:53:35.545Z,98106.73
2022-08-20T16:56:37.808Z,98101.25
2022-08-20T16:59:27.086Z,98102.03
2022-08-20T17:02:16.057Z,98103.23
2022-08-20T17:05:04.879Z,98106.45
2022-08-20T17:07:57.906Z,98107.67
2022-08-20T17:11:04.075Z,98106.35
2022-08-20T17:13:51.559Z,98108.45
2022-08-20T17:16:42.480Z,98105.52
2022-08-20T17:19:32.024Z,98108.31
2022-08-20T17:22:21.287Z,98106.30
2022-08-20T17:25:18.920Z,98114.96
2022-08-20T17:28:17.247Z,98117.59
2022-08-20T17:31:04.595Z,98112.31
2022-08-20T17:33:51.992Z,98119.37
2022-08-20T17:36:42.399Z,98115.94
2022-08-20T17:39:32.072Z,98116.30
2022-08-20T17:42:22.481Z,98120.36
2022-08-20T17:45:14.713Z,98115.16
2022-08-20T17:48:02.543Z,98122.66
2022-08-20T17:50:50.327Z,98123.61
2022-08-20T17:53:39.520Z,98132.16
2022-08-20T17:56:32.270Z,98134.63
2022-08-20T17:59:59.720Z,98141.10
2022-08-20T18:02:18.493Z,98143.99
2022-08-20T18:05:12.277Z,98147.17
2022-08-20T18:08:14.095Z,98143.20
2022-08-20T18:11:24.127Z,98144.83
2022-08-20T18:14:19.672Z,98147.69
2022-08-20T18:17:15.702Z,98141.86
2022-08-20T18:20:08.865Z,98145.73
2022-08-20T18:23:03.766Z,98139.77
2022-08-20T18:28:55.545Z,98139.66
2022-08-20T18:31:51.600Z,98141.13
2022-08-20T18:34:42.545Z,98147.23
2022-08-20T18:37:31.354Z,98146.88
2022-08-20T18:43:17.158Z,98135.69
2022-08-20T18:46:16.431Z,98135.57
2022-08-20T18:49:06.777Z,98132.41
2022-08-20T18:51:54.489Z,98134.71
2022-08-20T18:54:44.248Z,98133.58
2022-08-20T18:57:41.149Z,98130.78
2022-08-20T19:00:28.690Z,98139.67
2022-08-20T19:03:31.541Z,98138.28
2022-08-20T19:06:33.504Z,98131.67
2022-08-20T19:09:48.480Z,98131.08
2022-08-20T19:13:16.078Z,98128.48
2022-08-20T19:16:11.387Z,98123.91
2022-08-20T19:18:58.999Z,98128.72
2022-08-20T19:21:48.453Z,98126.14
2022-08-20T19:24:40.676Z,98130.76
2022-08-20T19:27:27.009Z,98122.73
2022-08-20T19:30:14.697Z,98121.96
2022-08-20T19:33:04.612Z,98121.19
2022-08-20T19:35:52.114Z,98123.82
2022-08-20T19:38:52.783Z,98122.04
2022-08-20T19:41:46.394Z,98120.84
2022-08-20T19:44:46.796Z,98113.86
2022-08-20T19:47:38.144Z,98116.70
2022-08-20T19:50:43.776Z,98112.06
2022-08-20T19:53:33.760Z,98110.29
2022-08-20T19:56:23.983Z,98103.48
2022-08-20T19:59:12.494Z,98102.97
2022-08-20T20:02:03.300Z,98107.03
2022-08-20T20:04:54.929Z,98105.45
2022-08-20T20:07:43.543Z,98106.88
2022-08-20T20:10:35.034Z,98100.28
2022-08-20T20:13:24.048Z,98106.17
2022-08-20T20:16:12.047Z,98101.34
2022-08-20T20:19:24.855Z,98100.98
2022-08-20T20:21:53.088Z,98103.06
2022-08-20T20:24:46.692Z,98105.72
2022-08-20T20:27:35.026Z,98104.19
2022-08-20T20:30:35.770Z,98107.62
2022-08-20T20:33:31.557Z,98104.27
2022-08-20T20:36:21.682Z,98100.28
2022-08-20T20:39:29.968Z,98101.27
2022-08-20T20:42:21.832Z,98111.73
2022-08-20T20:45:20.108Z,98116.18
2022-08-20T20:48:22.032Z,98115.20
2022-08-20T20:54:12.385Z,98120.00
2022-08-20T20:57:23.924Z,98115.82
2022-08-20T21:00:13.552Z,98119.66
2022-08-20T21:03:04.249Z,98117.69
2022-08-20T21:05:49.848Z,98123.72
2022-08-20T21:08:36.921Z,98130.33
2022-08-20T21:11:25.322Z,98129.53
2022-08-20T21:14:13.162Z,98127.55
2022-08-20T21:17:03.425Z,98134.16
2022-08-20T21:19:52.264Z,98139.80
2022-08-20T21:22:40.273Z,98144.62
2022-08-20T21:25:29.642Z,98148.83
2022-08-20T21:28:16.921Z,98150.23
2022-08-20T21:31:04.712Z,98145.63
2022-08-20T21:33:52.671Z,98150.45
2022-08-20T21:36:40.929Z,98145.44
2022-08-20T21:39:28.336Z,98134.00
2022-08-20T21:42:29.392Z,98137.80
2022-08-20T21:45:08.872Z,98137.83
2022-08-20T21:47:56.226Z,98130.80
2022-08-20T21:50:44.167Z,98137.44
2022-08-20T21:53:32.135Z,98138.41
2022-08-20T21:56:19.826Z,98139.21
2022-08-20T21:59:09.801Z,98143.82
2022-08-20T22:01:57.321Z,98145.20
2022-08-20T22:04:45.005Z,98140.59
2022-08-20T22:07:32.689Z,98133.59
2022-08-20T22:10:19.991Z,98136.38
2022-08-20T22:13:07.608Z,98134.96
2022-08-20T22:15:55.455Z,98127.36
2022-08-20T22:18:43.403Z,98126.33
2022-08-20T22:21:33.191Z,98129.53
2022-08-20T22:24:20.751Z,98126.93
2022-08-20T22:27:08.276Z,98123.33
2022-08-20T22:29:56.186Z,98127.95
2022-08-20T22:33:01.496Z,98122.72
2022-08-20T22:35:33.153Z,98121.53
2022-08-20T22:38:20.830Z,98129.73
2022-08-20T22:41:09.923Z,98127.70
2022-08-20T22:43:57.566Z,98128.52
2022-08-20T22:46:48.158Z,98127.67
2022-08-20T22:49:35.454Z,98121.02
2022-08-20T22:52:23.807Z,98121.41
2022-08-20T22:55:13.198Z,98126.02
2022-08-20T22:58:00.986Z,98125.63
2022-08-20T23:00:49.566Z,98122.98
2022-08-20T23:03:40.114Z,98124.56
2022-08-20T23:06:27.303Z,98127.58
2022-08-20T23:09:14.551Z,98127.17
2022-08-20T23:12:03.566Z,98127.77
2022-08-20T23:14:52.791Z,98126.97
2022-08-20T23:17:40.584Z,98117.76
2022-08-20T23:20:28.198Z,98122.97
2022-08-20T23:23:16.599Z,98120.35
2022-08-20T23:26:03.954Z,98116.51
2022-08-20T23:28:51.388Z,98115.46
2022-08-20T23:31:39.407Z,98119.24
2022-08-20T23:34:27.703Z,98122.05
2022-08-20T23:37:15.463Z,98111.22
2022-08-20T23:40:03.226Z,98112.99
2022-08-20T23:42:51.155Z,98109.16
2022-08-20T23:45:39.928Z,98110.97
2022-08-20T23:48:27.624Z,98109.56
2022-08-20T23:51:15.320Z,98103.36
2022-08-20T23:54:03.048Z,98102.73
2022-08-20T23:56:50.502Z,98098.88
2022-08-20T23:59:38.143Z,98104.63
